Time;durP1;ratioP1;P1;durP2;ratioP2;P2;SDS_P1;SDS_P2;PMS_P1;PMS_P2;Temp;Humidity;BMP_temperature;BMP_pressure;BME280_temperature;BME280_humidity;BME280_pressure;Samples;Min_cycle;Max_cycle;Signal;HPM_P1;HPM_P2
2021/11/22 00:01:41;;;;;;;7.05;5.29;;;;;;;5.68;96.93;99133.59;2019103;77;20913;-77
2021/11/22 00:04:44;;;;;;;7.60;5.97;;;;;;;5.70;97.11;99138.75;2019193;80;20556;-77
2021/11/22 00:07:47;;;;;;;8.93;6.21;;;;;;;5.69;96.92;99143.06;2018615;80;20394;-76
2021/11/22 00:10:49;;;;;;;7.39;5.19;;;;;;;5.70;97.15;99134.47;2018849;80;20352;-77
2021/11/22 00:13:52;;;;;;;9.86;6.13;;;;;;;5.73;97.06;99141.38;2017636;80;20562;-76
2021/11/22 00:16:54;;;;;;;6.94;4.55;;;;;;;5.76;97.05;99141.44;2019189;77;26837;-76
2021/11/22 00:19:58;;;;;;;10.80;5.25;;;;;;;5.79;96.74;99153.47;2023843;80;20324;-76
2021/11/22 00:23:01;;;;;;;6.61;4.85;;;;;;;5.81;96.65;99150.06;2023961;80;20879;-76
2021/11/22 00:26:04;;;;;;;8.63;6.16;;;;;;;5.82;96.47;99150.91;2023905;80;20443;-76
2021/11/22 00:29:07;;;;;;;6.95;4.32;;;;;;;5.82;96.47;99156.94;2023589;80;20377;-76
2021/11/22 00:35:33;;;;;;;9.50;3.99;;;;;;;5.84;96.23;99160.38;2049780;69;20328;-76
2021/11/22 00:38:37;;;;;;;8.38;4.30;;;;;;;5.89;95.94;99165.59;2023387;80;20308;-75
2021/11/22 00:41:40;;;;;;;7.49;4.11;;;;;;;5.93;95.62;99162.25;2023501;80;20428;-76
2021/11/22 00:44:43;;;;;;;8.88;3.83;;;;;;;5.93;95.23;99160.53;2022732;80;20401;-75
2021/11/22 00:47:46;;;;;;;6.68;3.60;;;;;;;5.94;95.12;99163.97;2021889;77;26899;-75
2021/11/22 00:50:51;;;;;;;6.20;3.35;;;;;;;5.96;94.69;99170.00;2023487;80;20340;-75
2021/11/22 00:53:54;;;;;;;5.47;3.44;;;;;;;5.97;94.28;99170.03;2022735;80;20400;-76
2021/11/22 00:56:56;;;;;;;6.95;3.80;;;;;;;5.95;94.27;99171.72;2023621;80;20329;-76
2021/11/22 00:59:59;;;;;;;5.45;3.26;;;;;;;5.94;94.43;99180.31;2023305;79;20320;-76
2021/11/22 01:03:03;;;;;;;4.32;2.99;;;;;;;5.93;94.41;99176.00;2023138;77;23366;-76
2021/11/22 01:06:05;;;;;;;7.50;3.44;;;;;;;5.93;94.41;99182.88;2023182;80;20783;-75
2021/11/22 01:09:09;;;;;;;8.00;3.33;;;;;;;5.94;94.19;99188.03;2023392;80;20296;-75
2021/11/22 01:12:11;;;;;;;6.91;3.54;;;;;;;5.94;94.17;99182.88;2022811;80;20320;-76
2021/11/22 01:15:18;;;;;;;9.02;3.92;;;;;;;5.95;94.25;99183.75;2022171;80;20327;-76
2021/11/22 01:18:21;;;;;;;8.85;3.85;;;;;;;5.96;94.00;99183.75;2022152;80;20339;-76
2021/11/22 01:21:24;;;;;;;8.25;4.64;;;;;;;5.92;94.12;99188.84;2023247;80;20353;-76
2021/11/22 01:24:27;;;;;;;7.38;4.30;;;;;;;5.89;94.43;99188.78;2022897;80;20312;-76
2021/11/22 01:27:30;;;;;;;7.43;4.00;;;;;;;5.85;94.63;99181.88;2023515;80;20300;-76
2021/11/22 01:30:33;;;;;;;6.88;4.31;;;;;;;5.81;94.91;99190.41;2021241;78;21767;-76
2021/11/22 01:33:36;;;;;;;7.43;4.55;;;;;;;5.78;95.25;99198.13;2023482;80;20381;-76
2021/11/22 01:36:38;;;;;;;10.15;4.68;;;;;;;5.74;95.59;99200.66;2023216;80;20378;-76
2021/11/22 01:39:41;;;;;;;8.98;5.01;;;;;;;5.78;95.83;99203.25;2023404;80;20907;-76
2021/11/22 01:42:45;;;;;;;10.23;4.60;;;;;;;5.82;95.92;99207.59;2023008;80;20312;-75
2021/11/22 01:45:50;;;;;;;7.85;4.75;;;;;;;5.83;95.72;99209.31;2023570;78;21109;-76
2021/11/22 01:48:56;;;;;;;9.15;5.45;;;;;;;5.82;95.77;99208.47;2023575;80;20734;-75
2021/11/22 01:51:58;;;;;;;7.51;5.18;;;;;;;5.84;95.84;99214.50;2022974;80;20724;-76
2021/11/22 01:55:01;;;;;;;11.71;5.22;;;;;;;5.87;95.85;99217.09;2022914;80;20348;-76
2021/11/22 01:58:05;;;;;;;11.10;6.13;;;;;;;5.90;95.78;99230.03;2022704;80;20357;-76
2021/11/22 02:01:08;;;;;;;10.14;5.34;;;;;;;5.94;95.72;99237.00;2021734;77;24052;-76
2021/11/22 02:04:12;;;;;;;18.04;5.60;;;;;;;5.97;95.58;99231.88;2022777;80;20324;-75
2021/11/22 02:07:15;;;;;;;12.19;5.21;;;;;;;6.03;95.25;99231.91;2023119;80;20330;-76
2021/11/22 02:10:19;;;;;;;11.06;6.15;;;;;;;6.06;94.90;99234.53;2023104;80;20336;-75
2021/11/22 02:13:22;;;;;;;8.44;5.43;;;;;;;6.10;94.69;99231.97;2023396;80;20339;-76
2021/11/22 02:16:25;;;;;;;10.77;4.99;;;;;;;6.10;94.39;99235.41;2021083;80;20312;-76
2021/11/22 02:19:27;;;;;;;11.20;5.45;;;;;;;6.12;94.20;99235.47;2023512;77;22622;-76
2021/11/22 02:22:31;;;;;;;11.63;5.51;;;;;;;6.14;93.91;99233.78;2023003;80;20315;-76
2021/11/22 02:25:35;;;;;;;13.31;5.20;;;;;;;6.16;93.67;99240.66;2023330;80;20332;-76
2021/11/22 02:28:37;;;;;;;11.93;5.29;;;;;;;6.16;93.56;99238.09;2022827;80;20330;-76
2021/11/22 02:31:40;;;;;;;8.74;5.09;;;;;;;6.19;93.35;99242.41;2021220;76;23166;-76
2021/11/22 02:34:43;;;;;;;11.61;5.34;;;;;;;6.21;93.01;99232.97;2023836;80;21179;-76
2021/11/22 02:37:47;;;;;;;11.79;5.03;;;;;;;6.21;92.68;99240.69;2022870;80;20333;-77
2021/11/22 02:40:50;;;;;;;11.18;5.46;;;;;;;6.21;92.69;99244.16;2023427;80;20315;-76
2021/11/22 02:43:55;;;;;;;6.07;4.78;;;;;;;6.25;92.50;99250.19;2024196;80;20320;-76
2021/11/22 02:46:58;;;;;;;15.51;5.05;;;;;;;6.25;92.24;99256.22;2022483;77;21136;-77
2021/11/22 02:50:02;;;;;;;10.25;4.93;;;;;;;6.26;92.09;99252.78;2023604;79;20361;-76
2021/11/22 02:53:05;;;;;;;8.01;4.39;;;;;;;6.26;91.95;99255.38;2023504;80;20358;-76
2021/11/22 02:56:09;;;;;;;9.70;4.70;;;;;;;6.24;91.89;99256.19;2027211;79;20716;-76
2021/11/22 02:59:11;;;;;;;8.61;4.64;;;;;;;6.25;91.91;99257.94;2023366;80;20412;-76
2021/11/22 03:02:14;;;;;;;9.41;4.66;;;;;;;6.28;91.78;99257.94;2023095;77;21993;-76
2021/11/22 03:05:18;;;;;;;11.63;4.49;;;;;;;6.27;91.61;99263.97;2025369;80;20349;-76
2021/11/22 03:08:20;;;;;;;8.99;4.63;;;;;;;6.26;91.47;99272.53;2024778;80;20339;-76
2021/11/22 03:11:23;;;;;;;9.64;3.99;;;;;;;6.27;91.38;99275.13;2024640;80;20686;-75
2021/11/22 03:14:27;;;;;;;12.94;5.88;;;;;;;6.26;91.21;99275.13;2025175;80;20330;-76
2021/11/22 03:17:29;;;;;;;7.53;4.19;;;;;;;6.26;91.08;99272.53;2023370;76;22401;-76
2021/11/22 03:20:32;;;;;;;9.05;4.60;;;;;;;6.27;90.83;99266.53;2025061;80;20308;-76
2021/11/22 03:23:36;;;;;;;7.21;4.11;;;;;;;6.27;90.78;99274.28;2025215;80;20373;-76
2021/11/22 03:26:39;;;;;;;10.20;4.01;;;;;;;6.29;90.69;99270.88;2025191;80;20355;-76
2021/11/22 03:29:42;;;;;;;9.60;4.22;;;;;;;6.28;90.34;99281.16;2028688;79;20429;-76
2021/11/22 03:32:45;;;;;;;8.01;3.85;;;;;;;6.28;90.34;99276.00;2023485;77;22633;-76
2021/11/22 03:35:50;;;;;;;12.51;4.36;;;;;;;6.28;90.23;99286.31;2024750;80;20388;-76
2021/11/22 03:38:54;;;;;;;6.49;4.20;;;;;;;6.26;90.12;99280.28;2025055;79;20341;-76
2021/11/22 03:41:59;;;;;;;7.45;3.71;;;;;;;6.25;90.06;99283.72;2024865;80;20647;-76
2021/11/22 03:45:02;;;;;;;10.95;3.63;;;;;;;6.23;89.98;99286.28;2024269;80;20379;-76
2021/11/22 03:48:05;;;;;;;8.99;3.83;;;;;;;6.24;89.85;99290.56;2019659;77;20999;-76
2021/11/22 03:51:08;;;;;;;9.61;3.80;;;;;;;6.23;89.80;99296.59;2019917;80;20343;-76
2021/11/22 03:54:12;;;;;;;6.78;3.26;;;;;;;6.21;89.77;99302.56;2020148;80;20329;-76
2021/11/22 03:57:14;;;;;;;8.15;3.63;;;;;;;6.17;89.66;99299.09;2019886;80;20374;-76
2021/11/22 04:00:19;;;;;;;8.04;3.96;;;;;;;6.15;89.64;99295.66;2019253;80;20337;-76
2021/11/22 04:03:26;;;;;;;5.47;3.04;;;;;;;6.13;89.65;99309.38;2023365;80;20350;-76
2021/11/22 04:06:29;;;;;;;5.19;3.13;;;;;;;6.10;89.78;99317.91;2023785;80;20199;-76
2021/11/22 04:09:34;;;;;;;6.95;3.36;;;;;;;6.10;89.75;99317.91;2024341;80;21064;-76
2021/11/22 04:12:37;;;;;;;8.30;3.22;;;;;;;6.11;89.72;99321.38;2024001;80;20346;-76
2021/11/22 04:15:40;;;;;;;9.59;3.76;;;;;;;6.09;89.73;99318.75;2021910;77;22983;-77
2021/11/22 04:18:43;;;;;;;11.01;3.66;;;;;;;6.10;89.67;99324.78;2024185;80;20380;-77
2021/11/22 04:21:46;;;;;;;7.80;3.01;;;;;;;6.11;89.61;99335.13;2023826;80;20337;-77
2021/11/22 04:24:49;;;;;;;8.56;3.55;;;;;;;6.11;89.54;99332.56;2024248;80;20323;-76
2021/11/22 04:27:51;;;;;;;5.40;2.69;;;;;;;6.10;89.35;99341.09;2024869;80;20407;-77
2021/11/22 04:30:54;;;;;;;9.85;3.15;;;;;;;6.10;89.26;99343.69;2022029;77;21502;-78
2021/11/22 04:33:57;;;;;;;5.50;2.66;;;;;;;6.11;89.19;99355.75;2024150;80;20352;-77
2021/11/22 04:37:00;;;;;;;6.35;2.83;;;;;;;6.10;89.08;99360.84;2023397;80;20304;-76
2021/11/22 04:40:06;;;;;;;4.60;2.61;;;;;;;6.09;89.06;99360.00;2023982;80;20330;-76
2021/11/22 04:43:08;;;;;;;8.52;3.14;;;;;;;6.09;89.06;99364.28;2024183;80;20360;-76
2021/11/22 04:46:11;;;;;;;5.03;2.71;;;;;;;6.11;88.83;99357.47;2023135;77;23182;-76
2021/11/22 04:49:14;;;;;;;6.45;2.60;;;;;;;6.10;88.78;99368.59;2024034;80;20338;-76
2021/11/22 04:52:17;;;;;;;5.66;2.34;;;;;;;6.10;88.75;99369.44;2023992;80;20356;-77
2021/11/22 04:55:20;;;;;;;5.85;2.13;;;;;;;6.10;88.53;99368.59;2024215;80;20328;-76
2021/11/22 04:58:23;;;;;;;4.96;2.34;;;;;;;6.09;88.52;99372.00;2022811;80;21100;-76
2021/11/22 05:01:26;;;;;;;5.24;2.11;;;;;;;6.10;88.35;99384.91;2021824;77;29902;-78
2021/11/22 05:04:29;;;;;;;5.54;2.29;;;;;;;6.08;88.19;99386.63;2023804;80;20315;-76
2021/11/22 05:07:32;;;;;;;4.93;2.14;;;;;;;6.07;88.22;99384.88;2023668;80;20879;-77
2021/11/22 05:10:39;;;;;;;2.88;2.04;;;;;;;6.08;88.40;99394.34;2024268;80;20328;-77
2021/11/22 05:13:42;;;;;;;5.74;2.14;;;;;;;6.10;88.21;99394.38;2024344;80;20327;-77
2021/11/22 05:16:46;;;;;;;9.44;2.10;;;;;;;6.10;88.14;99392.66;2022148;77;21759;-77
2021/11/22 05:19:49;;;;;;;4.84;1.74;;;;;;;6.09;88.23;99396.06;2024149;80;20360;-77
2021/11/22 05:22:52;;;;;;;5.26;1.79;;;;;;;6.09;87.94;99400.38;2023721;80;20426;-77
2021/11/22 05:25:54;;;;;;;3.97;1.69;;;;;;;6.09;87.94;99403.81;2024764;80;21171;-77
2021/11/22 05:28:58;;;;;;;6.91;2.61;;;;;;;6.10;87.57;99410.69;2023882;80;20348;-77
2021/11/22 05:32:01;;;;;;;5.97;2.04;;;;;;;6.11;87.54;99407.31;2022448;77;20798;-77
2021/11/22 05:35:04;;;;;;;5.75;1.61;;;;;;;6.11;87.39;99409.88;2023995;80;20353;-77
2021/11/22 05:38:06;;;;;;;3.13;1.61;;;;;;;6.11;87.29;99415.03;2023580;80;20329;-77
2021/11/22 05:41:14;;;;;;;5.91;2.00;;;;;;;6.12;87.11;99419.34;2023731;80;20379;-76
2021/11/22 05:44:16;;;;;;;4.80;1.55;;;;;;;6.11;87.12;99427.94;2024294;80;20696;-77
2021/11/22 05:47:19;;;;;;;4.49;1.66;;;;;;;6.12;87.10;99436.53;2022350;78;21050;-77
2021/11/22 05:50:22;;;;;;;5.15;1.79;;;;;;;6.12;86.98;99434.81;2024502;80;20414;-77
2021/11/22 05:53:27;;;;;;;4.32;1.33;;;;;;;6.13;86.98;99440.84;2024790;80;21049;-77
2021/11/22 05:56:30;;;;;;;6.13;1.63;;;;;;;6.12;86.97;99444.25;2023491;80;20436;-77
2021/11/22 05:59:32;;;;;;;5.18;1.58;;;;;;;6.13;86.91;99446.84;2023735;80;20385;-77
2021/11/22 06:02:35;;;;;;;6.88;1.90;;;;;;;6.13;86.73;99456.31;2021929;77;26502;-77
2021/11/22 06:05:38;;;;;;;4.50;1.65;;;;;;;6.14;86.58;99452.88;2024264;80;20343;-77
2021/11/22 06:08:41;;;;;;;6.84;1.79;;;;;;;6.14;86.75;99460.59;2024218;80;20308;-77
2021/11/22 06:11:43;;;;;;;3.38;1.56;;;;;;;6.14;86.66;99460.59;2023451;80;20343;-77
2021/11/22 06:14:46;;;;;;;2.22;1.60;;;;;;;6.15;86.36;99465.78;2024505;80;20381;-76
2021/11/22 06:17:49;;;;;;;5.31;1.55;;;;;;;6.15;86.39;99465.78;2022430;76;21329;-77
2021/11/22 06:20:52;;;;;;;6.99;2.04;;;;;;;6.15;86.38;99468.38;2023709;80;20312;-77
2021/11/22 06:23:54;;;;;;;5.15;1.42;;;;;;;6.15;86.15;99480.38;2023456;80;20512;-77
2021/11/22 06:26:57;;;;;;;2.96;1.40;;;;;;;6.15;86.01;99470.94;2023744;80;20331;-77
2021/11/22 06:30:01;;;;;;;5.35;1.40;;;;;;;6.16;85.91;99484.69;2027812;80;21012;-77
2021/11/22 06:33:04;;;;;;;5.80;1.21;;;;;;;6.15;85.77;99488.13;2018821;77;20829;-77
2021/11/22 06:36:07;;;;;;;8.24;2.20;;;;;;;6.14;85.65;99494.97;2019140;80;20805;-77
2021/11/22 06:39:10;;;;;;;5.06;1.60;;;;;;;6.15;85.61;99501.00;2018426;80;20324;-77
2021/11/22 06:42:13;;;;;;;4.55;1.60;;;;;;;6.15;85.55;99503.59;2019113;80;20378;-77
2021/11/22 06:45:18;;;;;;;4.89;1.13;;;;;;;6.14;85.78;99513.03;2017073;80;20902;-77
2021/11/22 06:48:20;;;;;;;6.69;1.45;;;;;;;6.16;85.43;99513.06;2022732;80;20315;-77
2021/11/22 06:51:23;;;;;;;3.76;1.24;;;;;;;6.17;85.15;99519.94;2022651;80;20312;-77
2021/11/22 06:54:26;;;;;;;4.88;1.34;;;;;;;6.14;85.39;99536.22;2024185;79;20351;-77
2021/11/22 06:57:29;;;;;;;5.51;1.21;;;;;;;6.14;85.32;99528.50;2021671;80;20356;-76
2021/11/22 07:00:31;;;;;;;6.18;1.14;;;;;;;6.14;85.05;99536.22;2020804;77;21669;-76
2021/11/22 07:03:35;;;;;;;5.32;1.40;;;;;;;6.16;84.84;99552.59;2023113;80;20312;-76
2021/11/22 07:06:37;;;;;;;6.36;1.31;;;;;;;6.16;84.66;99554.28;2023595;80;20296;-76
2021/11/22 07:09:41;;;;;;;4.74;1.34;;;;;;;6.15;84.77;99560.31;2024361;80;20312;-78
2021/11/22 07:12:44;;;;;;;5.95;2.36;;;;;;;6.15;84.50;99562.88;2023396;80;20336;-78
2021/11/22 07:15:47;;;;;;;4.93;1.50;;;;;;;6.15;84.44;99568.91;2021143;77;24787;-78
2021/11/22 07:18:50;;;;;;;5.79;1.50;;;;;;;6.15;84.57;99568.91;2024242;80;20414;-77
2021/11/22 07:22:09;;;;;;;5.36;1.26;;;;;;;6.13;84.44;99580.91;2027508;80;20716;-80
2021/11/22 07:25:12;;;;;;;6.15;2.45;;;;;;;6.15;84.49;99581.78;2024041;80;20424;-77
2021/11/22 07:28:15;;;;;;;5.39;1.85;;;;;;;6.11;84.02;99589.47;2023605;80;20383;-77
2021/11/22 07:31:18;;;;;;;5.35;1.14;;;;;;;6.09;84.23;99588.53;2022500;76;20323;-78
2021/11/22 07:34:21;;;;;;;7.65;1.33;;;;;;;6.07;84.26;99601.41;2025065;80;20343;-78
2021/11/22 07:37:25;;;;;;;3.64;1.29;;;;;;;6.06;83.92;99603.09;2025529;80;20333;-80
2021/11/22 07:40:27;;;;;;;6.95;1.36;;;;;;;6.06;84.26;99608.25;2026065;80;21283;-77
2021/11/22 07:43:30;;;;;;;5.55;1.13;;;;;;;6.05;83.91;99613.41;2024478;80;20458;-78
2021/11/22 07:46:33;;;;;;;7.39;1.00;;;;;;;6.04;83.11;99622.84;2022449;77;24056;-78
2021/11/22 07:49:36;;;;;;;5.03;1.00;;;;;;;6.05;82.95;99619.41;2024000;80;20312;-78
2021/11/22 07:52:38;;;;;;;3.90;1.08;;;;;;;6.07;82.58;99624.59;2025083;80;20339;-78
2021/11/22 07:55:41;;;;;;;4.15;1.15;;;;;;;6.06;82.54;99626.31;2024547;80;20396;-78
2021/11/22 07:58:44;;;;;;;7.97;1.10;;;;;;;6.06;82.57;99639.19;2024294;80;20375;-78
2021/11/22 08:01:47;;;;;;;3.15;0.95;;;;;;;6.04;82.25;99647.75;2023220;77;25326;-78
2021/11/22 08:04:50;;;;;;;5.21;1.10;;;;;;;6.04;82.24;99652.91;2024425;80;20389;-78
2021/11/22 08:07:55;;;;;;;3.92;1.10;;;;;;;6.02;82.31;99649.44;2024880;80;20393;-78
2021/11/22 08:14:10;;;;;;;8.23;1.38;;;;;;;5.99;82.29;99662.28;2023086;80;21358;-77
2021/11/22 08:17:13;;;;;;;5.36;1.20;;;;;;;5.95;81.56;99668.22;2021812;79;23553;-76
2021/11/22 08:20:17;;;;;;;4.68;0.90;;;;;;;5.93;81.35;99672.47;2023205;80;20312;-77
2021/11/22 08:23:20;;;;;;;4.24;1.05;;;;;;;5.89;81.44;99679.22;2023731;80;20320;-79
2021/11/22 08:26:22;;;;;;;6.22;1.24;;;;;;;5.85;81.92;99690.31;2023789;80;20409;-78
2021/11/22 08:29:25;;;;;;;2.75;0.94;;;;;;;5.83;81.47;99688.56;2027185;80;20288;-77
2021/11/22 08:32:28;;;;;;;3.85;0.81;;;;;;;5.80;81.49;99691.09;2022698;77;22373;-77
2021/11/22 08:35:33;;;;;;;3.38;1.00;;;;;;;5.79;81.31;99697.94;2024224;80;20858;-77
2021/11/22 08:38:36;;;;;;;4.19;1.02;;;;;;;5.78;81.24;99700.50;2024629;80;20347;-77
2021/11/22 08:41:38;;;;;;;6.41;1.31;;;;;;;5.77;81.16;99699.63;2024019;80;20376;-77
2021/11/22 08:44:41;;;;;;;4.45;1.36;;;;;;;5.82;81.19;99702.28;2024268;80;20386;-77
2021/11/22 08:47:44;;;;;;;4.65;1.51;;;;;;;5.93;81.12;99714.59;2021928;77;22163;-77
2021/11/22 08:50:47;;;;;;;3.71;1.10;;;;;;;6.18;81.07;99713.31;2024406;80;20768;-79
2021/11/22 08:53:50;;;;;;;4.06;1.41;;;;;;;6.68;80.49;99713.34;2023310;80;20372;-77
2021/11/22 08:56:53;;;;;;;4.05;1.00;;;;;;;7.19;79.05;99723.59;2023190;80;20312;-77
2021/11/22 08:59:55;;;;;;;3.86;1.04;;;;;;;7.74;78.07;99721.75;2023274;79;20712;-76
2021/11/22 09:02:58;;;;;;;4.10;1.64;;;;;;;8.13;75.58;99713.56;2022283;77;22907;-79
2021/11/22 09:06:03;;;;;;;3.76;0.96;;;;;;;8.41;73.47;99722.47;2024507;80;20379;-77
2021/11/22 09:09:08;;;;;;;4.35;0.81;;;;;;;8.58;72.07;99734.72;2024160;80;20362;-77
2021/11/22 09:12:11;;;;;;;3.97;0.85;;;;;;;8.67;71.02;99734.81;2022284;80;20355;-76
2021/11/22 09:15:14;;;;;;;1.85;0.70;;;;;;;8.78;70.90;99743.50;2021745;80;20364;-76
2021/11/22 09:18:16;;;;;;;2.30;0.85;;;;;;;8.84;69.44;99745.31;2024151;76;22216;-77
2021/11/22 09:21:20;;;;;;;3.76;1.41;;;;;;;9.00;69.27;99749.75;2023865;80;20336;-77
2021/11/22 09:24:28;;;;;;;4.60;0.72;;;;;;;8.99;68.77;99754.06;2028001;79;20885;-78
2021/11/22 09:27:31;;;;;;;4.31;1.24;;;;;;;9.00;68.21;99758.41;2023789;80;20268;-77
2021/11/22 09:30:34;;;;;;;2.56;0.82;;;;;;;9.06;68.39;99760.16;2021727;76;39602;-77
2021/11/22 09:33:37;;;;;;;2.03;0.68;;;;;;;9.28;68.21;99774.13;2023948;80;20919;-76
2021/11/22 09:36:40;;;;;;;2.33;0.68;;;;;;;9.37;67.26;99769.03;2023619;79;20335;-78
2021/11/22 09:39:43;;;;;;;2.99;0.70;;;;;;;9.16;64.69;99771.47;2025000;80;20761;-77
2021/11/22 09:42:46;;;;;;;2.69;0.65;;;;;;;9.17;65.21;99775.78;2025636;80;20377;-77
2021/11/22 09:45:51;;;;;;;1.74;0.52;;;;;;;9.06;63.83;99788.66;2023972;77;23542;-78
2021/11/22 09:48:54;;;;;;;4.05;0.60;;;;;;;9.19;65.29;99790.50;2024311;80;21277;-77
2021/11/22 09:51:56;;;;;;;2.14;0.57;;;;;;;9.25;64.79;99787.06;2023781;80;20308;-78
2021/11/22 09:55:00;;;;;;;1.16;0.46;;;;;;;9.31;64.77;99787.97;2027011;80;20748;-78
2021/11/22 09:58:06;;;;;;;1.66;0.40;;;;;;;9.28;63.81;99780.16;2024618;80;20345;-78
2021/11/22 10:01:15;;;;;;;1.08;0.40;;;;;;;9.21;63.92;99781.00;2023853;80;20345;-78
2021/11/22 10:04:19;;;;;;;1.00;0.40;;;;;;;9.18;64.28;99787.88;2024486;80;20319;-78
2021/11/22 10:07:32;;;;;;;0.98;0.49;;;;;;;9.09;64.61;99789.53;2024820;80;20396;-78
2021/11/22 10:10:39;;;;;;;2.79;0.49;;;;;;;9.00;65.04;99789.47;2024074;80;20340;-77
2021/11/22 10:13:45;;;;;;;1.46;0.50;;;;;;;8.99;64.74;99798.09;2023622;80;20739;-77
2021/11/22 10:16:47;;;;;;;2.21;0.50;;;;;;;8.94;63.45;99786.81;2022343;80;20840;-77
2021/11/22 10:20:12;;;;;;;1.69;0.39;;;;;;;8.84;63.57;99787.59;2024338;80;20347;-77
2021/11/22 10:23:24;;;;;;;1.21;0.51;;;;;;;8.83;64.03;99791.06;2024305;80;20341;-78
2021/11/22 10:26:37;;;;;;;2.56;0.46;;;;;;;8.74;63.92;99794.41;2023629;80;20336;-78
2021/11/22 10:29:40;;;;;;;1.00;0.40;;;;;;;8.59;63.41;99795.97;2023472;80;20811;-77
2021/11/22 10:32:43;;;;;;;1.86;0.45;;;;;;;8.60;64.33;99798.56;2024400;77;20333;-77
2021/11/22 10:35:48;;;;;;;3.26;0.50;;;;;;;8.66;64.47;99798.66;2024521;80;21113;-77
2021/11/22 10:38:56;;;;;;;1.39;0.60;;;;;;;8.74;64.70;99793.53;2024179;80;20377;-78
2021/11/22 10:41:59;;;;;;;4.12;0.81;;;;;;;8.72;63.63;99808.19;2023965;80;20319;-78
2021/11/22 10:45:02;;;;;;;3.66;1.24;;;;;;;8.67;63.33;99812.47;2023063;80;20233;-77
2021/11/22 10:48:10;;;;;;;6.29;2.49;;;;;;;8.53;62.62;99812.31;2023150;77;22307;-78
2021/11/22 10:51:39;;;;;;;4.06;1.04;;;;;;;8.51;63.15;99821.78;2023189;80;20348;-77
2021/11/22 10:55:00;;;;;;;1.71;0.54;;;;;;;8.35;62.79;99827.66;2024293;80;20183;-77
2021/11/22 10:58:02;;;;;;;3.08;0.71;;;;;;;8.23;62.95;99824.88;2023706;80;20344;-77
2021/11/22 11:01:33;;;;;;;2.69;0.60;;;;;;;8.26;64.21;99833.56;2022849;80;20332;-77
2021/11/22 11:04:44;;;;;;;2.88;0.70;;;;;;;8.12;63.76;99830.81;2025076;80;20408;-77
2021/11/22 11:07:47;;;;;;;1.61;0.59;;;;;;;8.08;64.62;99826.44;2024505;80;20333;-77
2021/11/22 11:10:53;;;;;;;2.61;0.60;;;;;;;8.00;64.19;99840.97;2024345;80;20489;-77
2021/11/22 11:14:12;;;;;;;4.84;0.65;;;;;;;7.90;64.08;99836.56;2024131;80;20601;-77
2021/11/22 11:17:30;;;;;;;2.00;0.66;;;;;;;7.85;64.77;99843.34;2022431;80;33352;-76
2021/11/22 11:20:33;;;;;;;0.89;0.51;;;;;;;7.86;65.59;99845.09;2025419;80;20340;-77
2021/11/22 11:23:36;;;;;;;2.66;0.89;;;;;;;7.83;65.30;99847.63;2026134;80;20236;-77
2021/11/22 11:26:41;;;;;;;2.29;0.61;;;;;;;7.81;65.52;99849.34;2024470;80;20304;-77
2021/11/22 11:29:44;;;;;;;1.42;0.50;;;;;;;7.76;64.31;99857.03;2023261;79;20325;-77
2021/11/22 11:32:50;;;;;;;1.13;0.43;;;;;;;7.70;64.31;99856.91;2022372;77;36268;-77
2021/11/22 11:36:00;;;;;;;2.54;0.40;;;;;;;7.60;64.01;99861.94;2023672;80;20323;-78
2021/11/22 11:39:25;;;;;;;1.51;0.46;;;;;;;7.54;64.59;99865.28;2024241;80;20312;-77
2021/11/22 11:42:52;;;;;;;1.38;0.50;;;;;;;7.46;65.49;99869.47;2023814;80;20349;-77
2021/11/22 11:46:02;;;;;;;1.17;0.39;;;;;;;7.50;66.13;99879.00;2022192;76;20489;-77
2021/11/22 11:49:11;;;;;;;2.72;0.70;;;;;;;7.51;66.04;99863.53;2024308;80;20478;-77
2021/11/22 11:52:26;;;;;;;2.80;0.60;;;;;;;7.62;66.48;99871.47;2024789;80;20316;-77
2021/11/22 11:55:29;;;;;;;1.56;0.40;;;;;;;7.92;66.67;99870.19;2024460;80;20167;-77
2021/11/22 11:58:32;;;;;;;1.27;0.57;;;;;;;8.22;65.94;99862.81;2024084;80;20759;-78
2021/11/22 12:02:13;;;;;;;5.56;0.70;;;;;;;8.41;65.44;99866.50;2022714;77;21279;-77
2021/11/22 12:05:16;;;;;;;1.55;0.50;;;;;;;8.54;64.80;99868.41;2021368;80;20340;-77
2021/11/22 12:08:32;;;;;;;1.60;0.50;;;;;;;8.60;63.74;99868.47;2023613;80;20316;-78
2021/11/22 12:11:34;;;;;;;1.89;0.55;;;;;;;8.66;64.15;99858.19;2022638;80;20343;-78
2021/11/22 12:14:47;;;;;;;1.16;0.79;;;;;;;8.67;64.22;99869.41;2023465;80;20328;-77
2021/11/22 12:17:52;;;;;;;2.33;0.50;;;;;;;8.59;63.22;99864.13;2021259;77;22139;-77
2021/11/22 12:21:06;;;;;;;0.79;0.32;;;;;;;8.57;63.34;99875.34;2023784;80;21257;-77
2021/11/22 12:24:13;;;;;;;0.94;0.32;;;;;;;8.52;62.79;99867.53;2021848;80;20479;-77
2021/11/22 12:27:27;;;;;;;1.31;0.30;;;;;;;8.50;63.20;99873.53;2022346;80;20324;-79
2021/11/22 12:30:32;;;;;;;1.56;0.30;;;;;;;8.46;62.63;99870.06;2027235;80;20353;-80
2021/11/22 12:33:40;;;;;;;0.50;0.28;;;;;;;8.43;62.34;99869.97;2030052;69;20954;-80
2021/11/22 12:36:46;;;;;;;0.46;0.35;;;;;;;8.40;61.67;99865.66;2011637;80;20332;-78
2021/11/22 12:39:52;;;;;;;0.61;0.30;;;;;;;8.45;62.65;99863.13;2011556;80;20384;-77
2021/11/22 12:42:58;;;;;;;1.73;0.30;;;;;;;8.41;61.66;99869.09;2011314;80;20218;-77
2021/11/22 12:46:01;;;;;;;1.15;0.29;;;;;;;8.31;61.45;99875.88;2008662;77;20400;-77
2021/11/22 12:49:24;;;;;;;2.54;0.30;;;;;;;8.32;61.74;99864.66;2012675;80;20343;-80
2021/11/22 12:52:29;;;;;;;0.98;0.40;;;;;;;8.34;62.32;99872.47;2011902;80;20368;-77
2021/11/22 12:55:43;;;;;;;0.82;0.30;;;;;;;8.37;62.41;99881.13;2014551;80;20356;-78
2021/11/22 12:59:05;;;;;;;0.81;0.30;;;;;;;8.40;62.37;99886.34;2011757;80;20365;-77
2021/11/22 13:02:42;;;;;;;0.86;0.30;;;;;;;8.37;62.56;99880.28;2013663;80;20915;-79
2021/11/22 13:06:08;;;;;;;0.41;0.28;;;;;;;8.37;62.13;99881.13;2010098;80;20342;-77
2021/11/22 13:09:37;;;;;;;0.61;0.30;;;;;;;8.35;61.62;99879.38;2009832;80;20322;-77
2021/11/22 13:12:45;;;;;;;1.50;0.50;;;;;;;8.33;61.84;99884.50;2014049;80;20329;-77
2021/11/22 13:15:59;;;;;;;2.25;0.56;;;;;;;8.29;61.66;99880.16;2009080;77;20873;-77
2021/11/22 13:19:08;;;;;;;0.30;0.30;;;;;;;8.20;61.17;99882.63;2011929;80;20480;-79
2021/11/22 13:22:12;;;;;;;;;;;;;;;8.15;60.75;99889.44;2010179;80;20322;-77
2021/11/22 13:25:16;;;;;;;1.11;0.84;;;;;;;8.19;61.62;99896.41;2010490;80;20117;-77
2021/11/22 13:28:22;;;;;;;0.90;0.50;;;;;;;8.13;61.13;99902.38;2010518;80;20364;-77
2021/11/22 13:31:42;;;;;;;0.71;0.40;;;;;;;8.16;61.53;99906.72;2008760;77;24056;-78
2021/11/22 13:34:45;;;;;;;1.56;0.40;;;;;;;8.14;60.67;99913.59;2009954;80;20448;-78
2021/11/22 13:38:12;;;;;;;0.22;0.22;;;;;;;8.05;60.29;99901.38;2009864;80;20399;-78
2021/11/22 13:41:18;;;;;;;0.47;0.28;;;;;;;7.97;60.12;99896.97;2009867;80;20379;-78
2021/11/22 13:44:22;;;;;;;0.45;0.30;;;;;;;8.00;60.94;99905.63;2010519;80;20330;-77
2021/11/22 13:47:28;;;;;;;2.55;0.49;;;;;;;8.05;61.25;99910.84;2008305;77;48458;-78
2021/11/22 13:50:48;;;;;;;0.86;0.40;;;;;;;7.98;59.85;99915.06;2012430;80;20371;-77
2021/11/22 13:54:00;;;;;;;0.49;0.35;;;;;;;7.92;60.29;99917.59;2011885;80;20445;-77
2021/11/22 13:57:06;;;;;;;0.30;0.30;;;;;;;7.85;61.04;99932.13;2011227;80;20314;-77
2021/11/22 14:00:11;;;;;;;1.17;0.30;;;;;;;7.75;61.48;99931.97;2010386;80;20207;-78
2021/11/22 14:03:13;;;;;;;0.50;0.30;;;;;;;7.65;61.58;99959.38;2011261;77;20638;-77
2021/11/22 14:06:18;;;;;;;0.32;0.20;;;;;;;7.57;61.66;99951.50;2011795;80;20325;-77
2021/11/22 14:09:22;;;;;;;0.20;0.20;;;;;;;7.49;61.65;99941.88;2011596;80;20408;-77
2021/11/22 14:12:30;;;;;;;0.57;0.30;;;;;;;7.43;61.86;99950.41;2011069;80;20330;-77
2021/11/22 14:15:36;;;;;;;0.20;0.20;;;;;;;7.40;62.14;99958.09;2010156;77;24753;-77
2021/11/22 14:18:39;;;;;;;0.20;0.20;;;;;;;7.37;62.05;99952.03;2011380;80;20410;-79
2021/11/22 14:21:42;;;;;;;0.36;0.30;;;;;;;7.35;62.05;99961.44;2011878;80;20345;-77
2021/11/22 14:24:54;;;;;;;0.30;0.20;;;;;;;7.35;61.66;99966.59;2011064;80;20531;-77
2021/11/22 14:28:00;;;;;;;0.30;0.20;;;;;;;7.35;61.28;99966.59;2010618;80;20343;-77
2021/11/22 14:31:03;;;;;;;0.44;0.15;;;;;;;7.34;61.23;99970.88;2008746;77;22231;-76
2021/11/22 14:34:13;;;;;;;0.30;0.30;;;;;;;7.26;60.93;99978.50;2010255;80;20339;-77
2021/11/22 14:37:19;;;;;;;1.30;0.40;;;;;;;7.20;61.49;99978.41;2014835;80;20318;-77
2021/11/22 14:40:30;;;;;;;1.09;0.30;;;;;;;7.14;61.82;99980.84;2012391;80;20318;-77
2021/11/22 14:43:57;;;;;;;0.20;0.20;;;;;;;7.14;62.32;99977.41;2018038;80;20697;-80
2021/11/22 14:47:03;;;;;;;2.14;0.30;;;;;;;7.08;61.70;99978.16;2009327;77;21216;-79
2021/11/22 14:50:26;;;;;;;0.85;0.30;;;;;;;7.07;62.05;99988.47;2022653;80;20473;-79